Latest Weather Observations for Shepparton

IDV60801

Issued at 11:34 am EDT Saturday 10 December 2016 (issued every 30 minutes, with the page automatically refreshed every 10 minutes)

About weather observations | Map of weather stations | Latest weather observations for VIC | Other Formats
Station Details ID: 081125 Name: SHEPPARTON AIRPORT Lat: -36.43 Lon: 145.39 Height: 113.9 m
Data from the previous 72 hours. | See also: Recent months at Shepparton
Date/Time
EDT
Temp
°C
App
Temp
°C
Dew
Point
°C
Rel
Hum
%
Delta-T
°C
Wind Press
QNH
hPa
Press
MSL
hPa
Rain since
9am
mm
Dir  Spd
km/h
Gust
km/h
Spd
kts
Gust
kts
10/11:30am 19.2 15.4 6.0 42 6.5 WSW 15 22 8 12 1022.3 1021.9 0.0
10/11:00am 18.8 16.3 6.6 45 6.1 SSE 9 17 5 9 1022.5 1022.1 0.0
10/10:30am 17.1 13.7 5.7 47 5.6 SSW 13 24 7 13 1022.6 1022.2 0.0
10/10:00am 16.1 13.0 5.7 50 5.0 SSW 11 19 6 10 1022.8 1022.4 0.0
10/09:30am 15.4 10.8 5.6 52 4.7 S 19 26 10 14 1023.1 1022.7 0.0
10/09:00am 15.1 11.0 6.4 56 4.2 SSW 17 24 9 13 1023.0 1022.6 0.0
10/08:30am 13.9 8.8 6.0 59 3.8 SSW 22 28 12 15 1022.9 1022.5 0.0
10/08:00am 13.5 9.1 6.4 62 3.4 S 19 28 10 15 1022.6 1022.2 0.0
10/07:30am 12.4 8.0 6.5 67 2.8 S 19 26 10 14 1022.2 1021.8 0.0
10/07:00am 11.4 7.7 6.5 72 2.3 SSW 15 20 8 11 1021.8 1021.4 0.0
10/06:30am 10.3 7.0 6.5 77 1.8 SSW 13 17 7 9 1021.6 1021.2 0.0
10/06:00am 9.6 6.3 6.3 80 1.5 SSW 13 17 7 9 1021.4 1021.0 0.0
10/05:30am 10.0 6.2 6.0 76 1.9 SSW 15 19 8 10 1020.9 1020.5 0.0
10/05:00am 10.4 6.3 6.4 76 1.9 SSW 17 22 9 12 1020.6 1020.2 0.0
10/04:30am 10.6 6.5 6.0 73 2.1 S 17 22 9 12 1020.4 1020.0 0.0
10/04:00am 10.9 6.8 6.3 73 2.2 S 17 22 9 12 1020.2 1019.8 0.0
10/03:30am 11.2 7.2 6.5 73 2.2 S 17 22 9 12 1020.1 1019.7 0.0
10/03:00am 11.1 7.1 6.5 73 2.2 S 17 24 9 13 1020.4 1020.0 0.0
10/02:30am 11.3 7.3 6.8 74 2.1 S 17 24 9 13 1020.6 1020.2 0.0
10/02:00am 11.8 8.3 7.3 74 2.2 S 15 20 8 11 1020.8 1020.4 0.0
10/01:30am 12.3 9.1 7.0 70 2.6 S 13 17 7 9 1021.1 1020.7 0.0
10/01:00am 12.3 9.2 7.2 71 2.5 SSW 13 15 7 8 1021.5 1021.1 0.0
10/12:30am 11.9 8.6 6.6 70 2.5 S 13 17 7 9 1021.6 1021.2 0.0
10/12:00am 11.6 8.3 6.5 71 2.4 S 13 15 7 8 1021.6 1021.2 0.0
 
Date/Time
EDT
Temp
°C
App
Temp
°C
Dew
Point
°C
Rel
Hum
%
Delta-T
°C
Wind Press
QNH
hPa
Press
MSL
hPa
Rain since
9am
mm
Dir  Spd
km/h
Gust
km/h
Spd
kts
Gust
kts
09/11:30pm 12.4 8.7 6.2 66 2.9 S 15 22 8 12 1021.5 1021.1 0.0
09/11:00pm 13.6 9.6 6.5 62 3.4 S 17 24 9 13 1021.4 1021.0 0.0
09/10:30pm 13.7 10.4 6.6 62 3.4 S 13 17 7 9 1021.3 1020.9 0.0
09/10:00pm 12.9 9.9 5.8 62 3.3 S 11 15 6 8 1021.1 1020.7 0.0
09/09:30pm 13.5 10.0 5.4 58 3.8 S 13 17 7 9 1020.7 1020.3 0.0
09/09:00pm 14.4 10.1 5.2 54 4.3 S 17 24 9 13 1020.3 1019.9 0.0
09/08:30pm 15.3 10.3 4.7 49 5.0 S 20 32 11 17 1019.8 1019.4 0.0
09/08:00pm 16.3 9.7 4.0 44 5.7 S 28 41 15 22 1019.5 1019.1 0.0
09/07:30pm 17.1 10.2 4.8 44 5.9 S 30 43 16 23 1018.9 1018.6 0.0
09/07:00pm 18.2 11.6 4.0 39 6.7 S 28 39 15 21 1018.2 1017.9 0.0
09/06:30pm 18.6 11.8 3.3 36 7.2 SSW 28 35 15 19 1017.6 1017.3 0.0
09/06:00pm 19.3 13.0 3.5 35 7.5 S 26 41 14 22 1017.3 1017.0 0.0
09/05:30pm 19.3 12.5 3.1 34 7.6 SSW 28 41 15 22 1017.3 1017.0 0.0
09/05:00pm 19.4 13.4 3.6 35 7.5 SSW 24 35 13 19 1017.1 1016.8 0.0
09/04:30pm 19.5 13.0 2.8 33 7.8 S 26 39 14 21 1017.1 1016.8 0.0
09/04:00pm 19.3 12.5 3.1 34 7.6 S 28 41 15 22 1017.1 1016.8 0.0
09/03:34pm 19.7 12.9 3.0 33 7.9 SSW 28 46 15 25 1017.2 1016.9 0.0
09/03:30pm 18.8 12.3 2.6 34 7.5 S 26 41 14 22 1017.2 1016.9 0.0
09/03:17pm 18.7 11.8 2.5 34 7.5 SSW 28 46 15 25 1017.1 1016.8 0.0
09/03:00pm 18.4 11.6 3.1 36 7.1 S 28 41 15 22 1017.3 1017.0 0.0
09/02:30pm 19.2 12.4 3.0 34 7.6 SSW 28 39 15 21 1017.2 1016.9 0.0
09/02:00pm 18.5 11.6 2.8 35 7.3 SSW 28 46 15 25 1017.4 1017.1 0.0
09/01:55pm 18.7 11.9 3.3 36 7.2 SSW 28 46 15 25 1017.4 1017.1 0.0
09/01:30pm 17.8 10.2 2.9 37 6.9 SSW 32 44 17 24 1017.6 1017.3 0.0
09/01:00pm 17.5 10.9 2.3 36 6.9 SSW 26 43 14 23 1017.6 1017.3 0.0
09/12:30pm 17.5 11.0 2.7 37 6.8 SSW 26 44 14 24 1017.5 1017.2 0.0
09/12:00pm 16.3 8.5 2.7 40 6.2 SSW 33 44 18 24 1017.5 1017.2 0.0
09/11:30am 15.5 8.7 3.0 43 5.7 SSW 28 43 15 23 1017.2 1016.9 0.0
09/11:00am 16.0 7.7 2.1 39 6.2 S 35 48 19 26 1016.5 1016.2 0.0
09/10:30am 14.2 6.6 2.8 46 5.1 SW 32 46 17 25 1016.4 1016.1 0.0
09/10:00am 15.1 8.8 3.9 47 5.2 SSW 26 41 14 22 1016.0 1015.6 0.0
09/09:30am 14.3 6.7 4.0 50 4.7 SSW 33 48 18 26 1015.6 1015.2 0.0
09/09:07am 13.0 5.9 3.4 52 4.3 SSW 30 50 16 27 1015.1 1014.7 0.0
09/09:00am 13.7 7.2 4.8 55 4.1 SW 28 41 15 22 1015.2 1014.8 3.0
09/08:30am 12.8 6.3 4.5 57 3.8 SSW 28 39 15 21 1014.9 1014.5 3.0
09/08:00am 12.2 6.1 4.9 61 3.4 SW 26 37 14 20 1014.3 1013.9 3.0
09/07:30am 11.1 5.7 4.6 64 3.0 SW 22 32 12 17 1013.7 1013.3 3.0
09/07:00am 10.2 5.4 4.8 69 2.4 SW 19 28 10 15 1013.3 1012.9 3.0
09/06:30am 9.4 5.1 5.4 76 1.8 WSW 17 24 9 13 1012.8 1012.4 3.0
09/06:00am 9.2 5.0 5.8 79 1.6 SW 17 24 9 13 1012.0 1011.6 3.0
09/05:30am 9.4 5.2 5.9 79 1.6 SW 17 24 9 13 1011.6 1011.2 3.0
09/05:00am 10.0 5.5 6.0 76 1.9 SW 19 26 10 14 1011.0 1010.6 3.0
09/04:30am 10.4 5.9 6.2 75 2.0 SW 19 28 10 15 1010.5 1010.1 3.0
09/04:00am 10.7 6.0 6.1 73 2.2 SW 20 30 11 16 1010.0 1009.7 3.0
09/03:30am 11.0 5.9 6.0 71 2.3 SW 22 30 12 16 1009.7 1009.4 3.0
09/03:00am 11.1 6.4 6.0 71 2.4 SW 20 26 11 14 1009.4 1009.1 3.0
09/02:30am 11.7 7.1 6.4 70 2.5 SW 20 28 11 15 1009.2 1008.9 3.0
09/02:00am 11.8 6.9 6.9 72 2.4 SW 22 32 12 17 1009.1 1008.8 3.0
09/01:30am 12.4 7.3 7.5 72 2.4 SW 24 35 13 19 1009.0 1008.7 3.0
09/01:00am 13.3 7.5 8.0 70 2.6 SW 28 37 15 20 1008.9 1008.6 3.0
09/12:30am 13.5 9.3 8.4 71 2.6 WSW 20 35 11 19 1008.7 1008.3 3.0
09/12:00am 14.0 9.1 8.4 69 2.8 SW 24 33 13 18 1008.3 1007.9 3.0
 
Date/Time
EDT
Temp
°C
App
Temp
°C
Dew
Point
°C
Rel
Hum
%
Delta-T
°C
Wind Press
QNH
hPa
Press
MSL
hPa
Rain since
9am
mm
Dir  Spd
km/h
Gust
km/h
Spd
kts
Gust
kts
08/11:30pm 14.3 8.6 8.5 68 2.9 SW 28 43 15 23 1008.1 1007.7 3.0
08/11:00pm 14.7 8.2 8.0 64 3.4 SW 32 48 17 26 1007.6 1007.2 3.0
08/10:43pm 15.1 9.3 8.1 63 3.5 WSW 28 46 15 25 1007.5 1007.1 3.0
08/10:30pm 15.3 10.4 8.3 63 3.5 WSW 24 43 13 23 1007.3 1006.9 3.0
08/10:00pm 15.1 10.9 8.1 63 3.5 SW 20 30 11 16 1006.7 1006.3 3.0
08/09:30pm 15.4 9.6 7.9 61 3.8 SW 28 37 15 20 1006.1 1005.7 3.0
08/09:00pm 15.4 10.8 8.2 62 3.7 SW 22 32 12 17 1005.6 1005.2 3.0
08/08:32pm 16.3 9.7 7.8 57 4.3 SW 32 50 17 27 1005.0 1004.6 3.0
08/08:30pm 16.4 9.6 7.9 57 4.3 SW 33 50 18 27 1004.9 1004.5 3.0
08/08:03pm 18.3 11.0 4.5 40 6.6 WSW 32 54 17 29 1003.6 1003.2 3.0
08/08:00pm 18.3 11.3 4.1 39 6.8 WSW 30 43 16 23 1003.6 1003.2 3.0
08/07:30pm 19.8 12.6 5.1 38 7.2 WSW 32 48 17 26 1002.8 1002.4 3.0
08/07:11pm 20.3 13.1 4.8 36 7.6 WSW 32 50 17 27 1002.4 1002.0 3.0
08/07:00pm 20.3 12.1 4.8 36 7.6 W 37 54 20 29 1002.3 1001.9 3.0
08/06:39pm 21.5 13.5 3.7 31 8.6 W 35 56 19 30 1001.5 1001.1 3.0
08/06:30pm 20.6 12.3 2.4 30 8.5 WSW 35 52 19 28 1001.4 1001.0 3.0
08/06:15pm 20.8 14.1 3.5 32 8.3 W 28 46 15 25 1001.2 1000.7 3.0
08/06:00pm 22.0 14.8 5.0 33 8.5 WSW 32 44 17 24 1001.1 1000.6 3.0
08/05:44pm 21.2 13.9 4.3 33 8.2 W 32 52 17 28 1000.8 1000.4 3.0
08/05:30pm 22.0 14.7 4.6 32 8.6 W 32 46 17 25 1000.7 1000.3 3.0
08/05:12pm 20.9 13.8 5.7 37 7.6 W 32 50 17 27 1000.6 1000.2 3.0
08/05:00pm 21.5 14.0 4.6 33 8.4 WSW 33 48 18 26 1000.4 1000.0 3.0
08/04:39pm 21.1 13.3 5.1 35 7.9 WSW 35 57 19 31 999.9 999.5 3.0
08/04:30pm 21.6 13.3 6.3 37 7.8 W 39 52 21 28 999.9 999.5 3.0
08/04:04pm 21.8 14.9 7.2 39 7.6 WSW 33 54 18 29 999.9 999.5 3.0
08/04:00pm 21.3 14.8 8.2 43 6.9 WSW 32 46 17 25 1000.0 999.6 3.0
08/03:30pm 20.5 17.9 14.8 70 3.4 WNW 22 37 12 20 1000.3 999.9 3.0
08/03:00pm 17.3 15.1 14.4 83 1.7 NW 19 30 10 16 1000.7 1000.3 3.0
08/02:30pm 14.8 12.5 13.0 89 1.0 WNW 17 22 9 12 1001.1 1000.6 3.0
08/02:00pm 14.1 12.0 13.5 96 0.3 WNW 17 24 9 13 1000.7 1000.3 3.0
08/01:30pm 13.1 9.1 11.7 91 0.7 W 24 33 13 18 1001.6 1001.2 2.0
08/01:01pm 13.1 8.0 11.8 92 0.7 W 30 48 16 26 1001.4 1001.0 1.6
08/01:00pm 13.0 7.5 11.7 92 0.7 W 32 48 17 26 1001.4 1001.0 1.6
08/12:30pm 15.1 9.7 12.8 86 1.3 W 33 52 18 28 1000.6 1000.2 1.6
08/12:07pm 18.7 14.9 14.8 78 2.3 NW 28 61 15 33 999.6 999.2 1.6
08/12:00pm 20.9 18.9 17.3 80 2.2 NNW 24 37 13 20 999.5 999.1 1.6
08/11:30am 20.4 17.8 16.8 80 2.2 NNW 26 37 14 20 999.9 999.5 1.6
08/11:00am 19.8 19.0 16.1 79 2.2 NNW 15 20 8 11 1000.2 999.8 1.4
08/10:30am 19.1 17.2 15.8 81 2.0 N 20 28 11 15 1000.4 1000.0 1.2
08/10:00am 18.7 15.2 14.4 76 2.5 NNW 26 39 14 21 1000.7 1000.3 0.6
08/09:30am 20.5 17.8 11.7 57 4.9 N 17 28 9 15 1000.8 1000.4 0.0
08/09:00am 21.8 18.2 9.7 46 6.6 NNW 19 28 10 15 1001.3 1000.9 0.0
08/08:30am 20.9 17.1 9.8 49 6.0 N 20 30 11 16 1000.8 1000.4 0.0
08/08:00am 20.3 16.0 9.2 49 5.9 NNE 22 32 12 17 1001.1 1000.6 0.0
08/07:30am 19.5 15.4 8.8 50 5.6 NNE 20 30 11 16 1001.4 1001.0 0.0
08/07:00am 19.1 14.9 8.1 49 5.7 NNE 20 26 11 14 1002.1 1001.7 0.0
08/06:30am 18.9 14.6 8.0 49 5.6 NNE 20 26 11 14 1002.5 1002.1 0.0
08/06:00am 18.7 14.4 7.2 47 5.9 NNE 19 26 10 14 1002.3 1001.9 0.0
08/05:30am 18.8 14.3 6.3 44 6.2 NNE 19 26 10 14 1002.4 1002.0 0.0
08/05:00am 19.0 14.8 5.5 41 6.7 NNE 17 24 9 13 1002.6 1002.2 0.0
08/04:30am 18.1 13.7 5.0 42 6.3 NNE 17 26 9 14 1002.9 1002.5 0.0
08/04:00am 17.9 13.5 4.8 42 6.3 NNE 17 22 9 12 1003.4 1003.0 0.0
08/03:30am 17.8 13.8 4.7 42 6.3 NNE 15 19 8 10 1003.8 1003.4 0.0
08/03:00am 18.2 14.5 4.7 41 6.5 NNE 13 19 7 10 1004.2 1003.8 0.0
08/02:30am 18.6 14.1 4.4 39 6.8 NNE 17 20 9 11 1004.2 1003.8 0.0
08/02:00am 18.7 14.9 4.1 38 7.0 NNE 13 17 7 9 1004.8 1004.4 0.0
08/01:30am 18.1 14.9 5.0 42 6.3 NNE 11 15 6 8 1005.6 1005.2 0.0
08/01:00am 18.6 15.3 4.8 40 6.7 NE 11 13 6 7 1006.0 1005.6 0.0
08/12:30am 19.0 15.7 4.7 39 6.9 NE 11 15 6 8 1006.6 1006.2 0.0
08/12:00am 19.2 16.0 5.3 40 6.8 NNE 11 13 6 7 1007.1 1006.7 0.0
 
Date/Time
EDT
Temp
°C
App
Temp
°C
Dew
Point
°C
Rel
Hum
%
Delta-T
°C
Wind Press
QNH
hPa
Press
MSL
hPa
Rain since
9am
mm
Dir  Spd
km/h
Gust
km/h
Spd
kts
Gust
kts
07/11:30pm 19.7 16.8 4.6 37 7.3 NE 9 11 5 6 1007.5 1007.1 0.0
07/11:00pm 20.3 17.0 4.8 36 7.6 NNE 11 15 6 8 1007.7 1007.3 0.0
07/10:30pm 20.7 17.4 4.7 35 7.8 NNE 11 13 6 7 1008.0 1007.6 0.0
07/10:00pm 20.5 17.6 4.9 36 7.7 NNE 9 11 5 6 1008.4 1008.0 0.0
07/09:30pm 22.3 19.4 4.8 32 8.7 NE 9 11 5 6 1008.5 1008.1 0.0
07/09:00pm 22.5 19.8 5.4 33 8.6 NNE 9 11 5 6 1008.6 1008.2 0.0
07/08:30pm 23.3 20.2 3.8 28 9.6 NNE 9 11 5 6 1008.8 1008.5 0.0
07/08:00pm 24.4 20.9 3.7 26 10.2 N 11 17 6 9 1008.9 1008.6 0.0
07/07:30pm 26.4 22.8 3.0 22 11.6 NNW 11 17 6 9 1009.1 1008.8 0.0
07/07:00pm 27.1 22.6 2.2 20 12.2 NNW 15 22 8 12 1009.2 1008.9 0.0
07/06:30pm 27.8 23.3 2.1 19 12.6 WNW 15 22 8 12 1009.4 1009.1 0.0
07/06:00pm 28.3 23.9 2.5 19 12.8 W 15 24 8 13 1009.7 1009.4 0.0
07/05:30pm 28.7 23.1 1.3 17 13.3 WNW 20 30 11 16 1009.9 1009.6 0.0
07/05:00pm 28.1 22.4 -0.9 15 13.5 WNW 19 32 10 17 1010.4 1010.0 0.0
07/04:30pm 27.7 22.2 0.5 17 13.0 NW 19 32 10 17 1010.8 1010.4 0.0
07/04:00pm 28.6 23.0 1.2 17 13.3 W 20 30 11 16 1011.2 1010.8 0.0
07/03:30pm 28.0 22.5 0.7 17 13.1 WNW 19 30 10 16 1011.5 1011.1 0.0
07/03:00pm 27.7 23.7 2.7 20 12.4 NNW 13 20 7 11 1012.0 1011.6 0.0
07/02:30pm 27.0 23.8 2.8 21 12.0 NNW 9 20 5 11 1012.3 1011.9 0.0
07/02:00pm 25.7 22.0 2.4 22 11.3 N 11 20 6 11 1012.8 1012.4 0.0
07/01:30pm 25.7 22.3 1.8 21 11.5 NW 9 20 5 11 1013.1 1012.7 0.0
07/01:00pm 24.9 21.2 4.6 27 10.2 N 13 24 7 13 1013.5 1013.1 0.0
07/12:30pm 24.5 22.1 5.3 29 9.8 NNE 7 15 4 8 1014.0 1013.6 0.0
07/12:00pm 23.8 21.5 5.7 31 9.2 NNE 7 17 4 9 1014.5 1014.1 0.0

Other Formats:

Comma delimited format used in spreadsheet applications
http://www.bom.gov.au/fwo/IDV60801/IDV60801.94875.axf

JavaScript Object Notation format (JSON) in row-major order
http://www.bom.gov.au/fwo/IDV60801/IDV60801.94875.json